createdAt,value
2018-05-12T00:02:15.795Z,99.90
2018-05-12T00:04:43.242Z,99.90
2018-05-12T00:07:10.698Z,99.90
2018-05-12T00:09:38.917Z,99.90
2018-05-12T00:12:07.154Z,99.90
2018-05-12T00:14:34.594Z,99.90
2018-05-12T00:17:02.057Z,99.90
2018-05-12T00:19:29.519Z,99.90
2018-05-12T00:21:56.979Z,99.90
2018-05-12T00:24:24.438Z,99.90
2018-05-12T00:26:51.903Z,99.90
2018-05-12T00:29:19.350Z,99.90
2018-05-12T00:31:46.809Z,99.90
2018-05-12T00:34:14.287Z,99.90
2018-05-12T00:36:41.725Z,99.90
2018-05-12T00:39:09.174Z,99.90
2018-05-12T00:41:36.637Z,99.90
2018-05-12T00:44:04.090Z,99.90
2018-05-12T00:46:31.539Z,99.90
2018-05-12T00:48:58.989Z,99.90
2018-05-12T00:51:26.562Z,99.90
2018-05-12T00:53:54.018Z,99.90
2018-05-12T00:56:21.478Z,99.90
2018-05-12T00:58:48.957Z,99.90
2018-05-12T01:01:16.402Z,99.90
2018-05-12T01:03:44.667Z,99.90
2018-05-12T01:06:12.117Z,99.90
2018-05-12T01:08:39.575Z,99.90
2018-05-12T01:11:07.038Z,99.90
2018-05-12T01:13:34.639Z,99.90
2018-05-12T01:16:02.589Z,99.90
2018-05-12T01:18:30.043Z,99.90
2018-05-12T01:20:57.498Z,99.90
2018-05-12T01:23:24.943Z,99.90
2018-05-12T01:25:52.407Z,99.90
2018-05-12T01:28:19.856Z,99.90
2018-05-12T01:30:47.310Z,99.90
2018-05-12T01:33:14.762Z,99.90
2018-05-12T01:35:42.219Z,99.90
2018-05-12T01:38:09.663Z,99.90
2018-05-12T01:40:37.115Z,99.90
2018-05-12T01:43:04.571Z,99.90
2018-05-12T01:45:32.026Z,99.90
2018-05-12T01:47:59.486Z,99.90
2018-05-12T01:50:26.939Z,99.90
2018-05-12T01:52:54.415Z,99.90
2018-05-12T01:55:21.857Z,99.90
2018-05-12T01:57:49.311Z,99.90
2018-05-12T02:00:16.764Z,99.90
2018-05-12T02:02:44.210Z,99.90
2018-05-12T02:05:11.670Z,99.90
2018-05-12T02:07:39.138Z,99.90
2018-05-12T02:10:06.607Z,99.90
2018-05-12T02:12:34.068Z,99.90
2018-05-12T02:15:01.514Z,99.90
2018-05-12T02:17:28.966Z,99.90
2018-05-12T02:19:56.422Z,99.90
2018-05-12T02:22:23.875Z,99.90
2018-05-12T02:24:51.341Z,99.90
2018-05-12T02:27:19.767Z,99.90
2018-05-12T02:29:47.230Z,99.90
2018-05-12T02:32:14.683Z,99.90
2018-05-12T02:34:42.139Z,99.90
2018-05-12T02:37:09.582Z,99.90
2018-05-12T02:39:37.031Z,99.90
2018-05-12T02:42:04.486Z,99.90
2018-05-12T02:44:31.933Z,99.90
2018-05-12T02:47:00.396Z,99.90
2018-05-12T02:49:27.832Z,99.90
2018-05-12T02:51:55.282Z,99.90
2018-05-12T02:54:24.782Z,99.90
2018-05-12T02:56:52.995Z,99.90
2018-05-12T02:59:20.454Z,99.90
2018-05-12T03:01:47.902Z,99.90
2018-05-12T03:04:15.362Z,99.90
2018-05-12T03:06:42.818Z,99.90
2018-05-12T03:09:10.263Z,99.90
2018-05-12T03:11:37.711Z,99.90
2018-05-12T03:14:05.178Z,99.90
2018-05-12T03:16:32.639Z,99.90
2018-05-12T03:19:00.102Z,99.90
2018-05-12T03:21:27.547Z,99.90
2018-05-12T03:23:55.006Z,99.90
2018-05-12T03:26:22.450Z,99.90
2018-05-12T03:28:50.674Z,99.90
2018-05-12T03:31:18.127Z,99.90
2018-05-12T03:33:45.597Z,99.90
2018-05-12T03:36:13.052Z,99.90
2018-05-12T03:38:40.514Z,99.90
2018-05-12T03:41:07.966Z,99.90
2018-05-12T03:43:35.518Z,99.90
2018-05-12T03:46:02.958Z,99.90
2018-05-12T03:48:30.409Z,99.90
2018-05-12T03:50:57.884Z,99.90
2018-05-12T03:53:25.982Z,99.90
2018-05-12T03:55:53.425Z,99.90
2018-05-12T03:58:20.883Z,99.90
2018-05-12T04:00:48.342Z,99.90
2018-05-12T04:03:15.791Z,99.90
2018-05-12T04:05:55.110Z,99.90
2018-05-12T04:08:34.283Z,99.90
2018-05-12T04:11:13.748Z,99.90
2018-05-12T04:13:41.966Z,99.90
2018-05-12T04:16:09.422Z,99.90
2018-05-12T04:18:38.488Z,99.90
2018-05-12T04:21:05.954Z,99.90
2018-05-12T04:23:33.407Z,99.90
2018-05-12T04:26:00.867Z,99.90
2018-05-12T04:28:28.326Z,99.90
2018-05-12T04:30:55.780Z,99.90
2018-05-12T04:33:23.234Z,99.90
2018-05-12T04:35:50.691Z,99.90
2018-05-12T04:38:18.153Z,99.90
2018-05-12T04:40:45.606Z,99.90
2018-05-12T04:43:13.078Z,99.90
2018-05-12T04:45:40.518Z,99.90
2018-05-12T04:48:08.677Z,99.90
2018-05-12T04:50:36.123Z,99.90
2018-05-12T04:53:04.351Z,99.90
2018-05-12T04:55:31.810Z,99.90
2018-05-12T04:57:59.998Z,99.90
2018-05-12T05:00:28.344Z,99.90
2018-05-12T05:02:56.714Z,99.90
2018-05-12T05:05:24.350Z,99.90
2018-05-12T05:07:51.803Z,99.90
2018-05-12T05:10:20.022Z,99.90
2018-05-12T05:12:48.414Z,99.90
2018-05-12T05:15:15.953Z,99.90
2018-05-12T05:17:43.318Z,99.90
2018-05-12T05:20:10.770Z,99.90
2018-05-12T05:22:38.234Z,99.90
2018-05-12T05:25:05.682Z,99.90
2018-05-12T05:27:33.138Z,99.90
2018-05-12T05:30:00.591Z,99.90
2018-05-12T05:32:28.053Z,99.90
2018-05-12T05:34:56.282Z,99.90
2018-05-12T05:37:24.498Z,99.90
2018-05-12T05:39:51.951Z,99.90
2018-05-12T05:42:19.430Z,99.90
2018-05-12T05:44:46.967Z,99.90
2018-05-12T05:47:14.422Z,99.90
2018-05-12T05:49:41.874Z,99.90
2018-05-12T05:52:09.343Z,99.90
2018-05-12T05:54:36.773Z,99.90
2018-05-12T05:57:04.241Z,99.90
2018-05-12T05:59:31.771Z,99.90
2018-05-12T06:01:59.150Z,99.90
2018-05-12T06:04:26.598Z,99.90
2018-05-12T06:06:54.125Z,99.90
2018-05-12T06:09:21.531Z,99.90
2018-05-12T06:11:48.991Z,99.90
2018-05-12T06:14:16.499Z,99.90
2018-05-12T06:16:43.938Z,99.90
2018-05-12T06:19:11.399Z,99.90
2018-05-12T06:21:38.861Z,99.90
2018-05-12T06:24:06.325Z,99.90
2018-05-12T06:26:34.067Z,99.90
2018-05-12T06:29:01.538Z,99.90
2018-05-12T06:31:28.990Z,99.90
2018-05-12T06:33:56.446Z,99.90
2018-05-12T06:36:23.903Z,99.90
2018-05-12T06:38:51.372Z,99.90
2018-05-12T06:41:18.822Z,99.90
2018-05-12T06:43:46.269Z,99.90
2018-05-12T06:46:13.736Z,99.90
2018-05-12T06:48:41.190Z,99.90
2018-05-12T06:51:08.641Z,99.90
2018-05-12T06:53:36.459Z,99.90
2018-05-12T06:56:03.849Z,99.90
2018-05-12T06:58:31.309Z,99.90
2018-05-12T07:00:59.153Z,99.90
2018-05-12T07:03:26.620Z,99.90
2018-05-12T07:05:54.071Z,99.90
2018-05-12T07:08:21.521Z,99.90
2018-05-12T07:10:48.966Z,99.90
2018-05-12T07:13:16.437Z,99.90
2018-05-12T07:15:43.891Z,99.90
2018-05-12T07:18:11.339Z,99.90
2018-05-12T07:20:38.794Z,99.90
2018-05-12T07:23:06.246Z,99.90
2018-05-12T07:25:33.709Z,99.90
2018-05-12T07:28:01.159Z,99.90
2018-05-12T07:30:28.618Z,99.90
2018-05-12T07:32:56.074Z,99.90
2018-05-12T07:35:23.526Z,99.90
2018-05-12T07:37:50.966Z,99.90
2018-05-12T07:40:19.195Z,99.90
2018-05-12T07:42:47.357Z,99.90
2018-05-12T07:45:14.811Z,99.90
2018-05-12T07:47:42.275Z,99.90
2018-05-12T07:50:09.727Z,99.90
2018-05-12T07:52:37.169Z,99.90
2018-05-12T07:55:04.637Z,99.90
2018-05-12T07:57:32.080Z,99.90
2018-05-12T07:59:59.542Z,99.90
2018-05-12T08:02:26.995Z,99.90
2018-05-12T08:04:54.441Z,99.90
2018-05-12T08:07:21.903Z,99.90
2018-05-12T08:09:49.350Z,99.90
2018-05-12T08:12:17.578Z,99.90
2018-05-12T08:14:45.361Z,99.90
2018-05-12T08:17:12.806Z,99.90
2018-05-12T08:19:40.263Z,99.90
2018-05-12T08:22:07.710Z,99.90
2018-05-12T08:24:35.159Z,99.90
2018-05-12T08:27:03.235Z,99.90
2018-05-12T08:29:30.693Z,99.90
2018-05-12T08:31:58.150Z,99.90
2018-05-12T08:34:25.626Z,99.90
2018-05-12T08:36:53.087Z,99.90
2018-05-12T08:39:20.538Z,99.90
2018-05-12T08:41:47.988Z,99.90
2018-05-12T08:44:15.449Z,99.90
2018-05-12T08:46:42.903Z,99.90
2018-05-12T08:49:10.639Z,99.90
2018-05-12T08:51:38.088Z,99.90
2018-05-12T08:54:05.530Z,99.90
2018-05-12T08:56:32.990Z,99.90
2018-05-12T08:59:00.443Z,99.90
2018-05-12T09:01:28.688Z,96.90
2018-05-12T09:03:56.123Z,96.90
2018-05-12T09:06:23.574Z,99.90
2018-05-12T09:08:51.028Z,99.90
2018-05-12T09:11:18.470Z,99.90
2018-05-12T09:13:45.922Z,99.50
2018-05-12T09:16:13.383Z,99.90
2018-05-12T09:18:40.836Z,99.10
2018-05-12T09:21:08.294Z,98.40
2018-05-12T09:23:35.750Z,99.30
2018-05-12T09:26:03.243Z,99.20
2018-05-12T09:28:30.691Z,98.50
2018-05-12T09:30:58.142Z,94.90
2018-05-12T09:33:25.602Z,96.00
2018-05-12T09:35:53.062Z,96.20
2018-05-12T09:38:21.300Z,95.60
2018-05-12T09:40:48.738Z,96.60
2018-05-12T09:43:17.251Z,96.00
2018-05-12T09:45:44.696Z,96.00
2018-05-12T09:48:12.134Z,95.40
2018-05-12T09:50:40.377Z,95.90
2018-05-12T09:53:07.820Z,95.80
2018-05-12T09:55:35.263Z,94.70
2018-05-12T09:58:03.482Z,93.20
2018-05-12T10:00:30.937Z,95.30
2018-05-12T10:02:58.418Z,93.80
2018-05-12T10:05:25.874Z,95.00
2018-05-12T10:07:54.086Z,96.10
2018-05-12T10:10:21.579Z,96.00
2018-05-12T10:12:49.105Z,95.20
2018-05-12T10:15:16.894Z,93.40
2018-05-12T10:17:44.393Z,93.00
2018-05-12T10:20:11.846Z,93.00
2018-05-12T10:22:39.285Z,95.10
2018-05-12T10:25:07.501Z,93.10
2018-05-12T10:27:34.956Z,93.00
2018-05-12T10:30:02.413Z,91.30
2018-05-12T10:32:29.850Z,91.60
2018-05-12T10:34:57.328Z,94.50
2018-05-12T10:37:25.122Z,95.40
2018-05-12T10:39:52.558Z,95.20
2018-05-12T10:42:20.022Z,95.00
2018-05-12T10:44:47.536Z,94.60
2018-05-12T10:47:14.919Z,95.10
2018-05-12T10:49:42.371Z,94.50
2018-05-12T10:52:09.834Z,95.30
2018-05-12T10:54:37.291Z,95.60
2018-05-12T10:57:04.753Z,95.50
2018-05-12T10:59:32.206Z,96.70
2018-05-12T11:01:59.702Z,96.10
2018-05-12T11:04:27.390Z,96.40
2018-05-12T11:06:55.601Z,95.80
2018-05-12T11:09:23.084Z,95.80
2018-05-12T11:11:51.290Z,94.00
2018-05-12T11:14:20.071Z,95.10
2018-05-12T11:16:47.514Z,95.10
2018-05-12T11:19:14.971Z,93.60
2018-05-12T11:21:42.457Z,91.30
2018-05-12T11:24:09.890Z,90.50
2018-05-12T11:26:37.592Z,89.30
2018-05-12T11:29:05.030Z,90.90
2018-05-12T11:31:32.458Z,91.90
2018-05-12T11:34:00.014Z,92.30
2018-05-12T11:36:27.449Z,92.50
2018-05-12T11:38:54.897Z,91.60
2018-05-12T11:41:22.354Z,91.40
2018-05-12T11:43:49.810Z,89.00
2018-05-12T11:46:17.266Z,87.30
2018-05-12T11:48:44.722Z,90.00
2018-05-12T11:51:12.175Z,86.90
2018-05-12T11:53:39.634Z,88.50
2018-05-12T11:56:07.078Z,88.10
2018-05-12T11:58:35.030Z,85.20
2018-05-12T12:01:03.250Z,85.60
2018-05-12T12:03:30.693Z,85.60
2018-05-12T12:05:58.487Z,81.90
2018-05-12T12:08:25.931Z,79.00
2018-05-12T12:10:53.374Z,78.60
2018-05-12T12:13:20.831Z,78.30
2018-05-12T12:15:48.286Z,79.20
2018-05-12T12:18:15.746Z,77.50
2018-05-12T12:20:43.204Z,79.80
2018-05-12T12:23:10.662Z,78.30
2018-05-12T12:25:38.566Z,78.20
2018-05-12T12:28:06.004Z,78.20
2018-05-12T12:30:33.458Z,73.20
2018-05-12T12:33:00.898Z,77.40
2018-05-12T12:35:28.359Z,80.40
2018-05-12T12:37:55.809Z,84.50
2018-05-12T12:40:23.267Z,79.00
2018-05-12T12:42:50.706Z,82.70
2018-05-12T12:45:18.263Z,80.70
2018-05-12T12:47:45.723Z,77.90
2018-05-12T12:50:13.170Z,77.20
2018-05-12T12:52:41.394Z,77.50
2018-05-12T12:55:08.955Z,77.50
2018-05-12T12:57:37.810Z,76.80
2018-05-12T13:00:05.261Z,76.50
2018-05-12T13:02:32.718Z,78.00
2018-05-12T13:05:00.195Z,75.40
2018-05-12T13:07:27.630Z,77.90
2018-05-12T13:09:55.086Z,78.90
2018-05-12T13:12:22.526Z,80.90
2018-05-12T13:14:50.749Z,79.10
2018-05-12T13:17:18.200Z,78.90
2018-05-12T13:19:46.368Z,77.00
2018-05-12T13:22:13.925Z,78.60
2018-05-12T13:24:41.278Z,77.50
2018-05-12T13:27:08.722Z,77.00
2018-05-12T13:29:36.192Z,76.60
2018-05-12T13:32:03.634Z,79.20
2018-05-12T13:34:31.080Z,78.50
2018-05-12T13:36:59.399Z,78.80
2018-05-12T13:39:26.846Z,78.90
2018-05-12T13:41:54.299Z,79.60
2018-05-12T13:44:21.754Z,79.00
2018-05-12T13:46:49.211Z,78.80
2018-05-12T13:49:16.650Z,78.10
2018-05-12T13:51:44.098Z,76.20
2018-05-12T13:54:12.893Z,77.00
2018-05-12T13:56:40.348Z,77.10
2018-05-12T13:59:07.785Z,79.00
2018-05-12T14:01:36.019Z,79.60
2018-05-12T14:04:03.842Z,79.40
2018-05-12T14:06:31.306Z,81.60
2018-05-12T14:08:58.772Z,79.80
2018-05-12T14:11:26.210Z,82.90
2018-05-12T14:13:54.445Z,82.70
2018-05-12T14:16:22.776Z,82.50
2018-05-12T14:18:50.228Z,82.90
2018-05-12T14:21:17.682Z,85.30
2018-05-12T14:23:46.331Z,85.10
2018-05-12T14:26:13.795Z,85.10
2018-05-12T14:28:41.238Z,82.20
2018-05-12T14:31:08.685Z,80.40
2018-05-12T14:33:36.139Z,79.60
2018-05-12T14:36:03.592Z,80.00
2018-05-12T14:38:31.311Z,83.40
2018-05-12T14:40:59.527Z,80.50
2018-05-12T14:43:26.968Z,80.50
2018-05-12T14:45:54.436Z,81.10
2018-05-12T14:48:21.883Z,81.90
2018-05-12T14:50:49.894Z,79.50
2018-05-12T14:53:17.342Z,77.90
2018-05-12T14:55:44.814Z,76.40
2018-05-12T14:58:12.262Z,77.30
2018-05-12T15:00:39.706Z,77.80
2018-05-12T15:03:07.162Z,78.10
2018-05-12T15:05:34.602Z,77.20
2018-05-12T15:08:02.073Z,77.30
2018-05-12T15:10:29.523Z,74.50
2018-05-12T15:12:56.966Z,74.40
2018-05-12T15:15:24.421Z,77.40
2018-05-12T15:17:52.803Z,76.10
2018-05-12T15:20:20.262Z,78.00
2018-05-12T15:22:47.709Z,77.70
2018-05-12T15:25:15.146Z,79.90
2018-05-12T15:27:43.362Z,82.80
2018-05-12T15:30:10.812Z,82.80
2018-05-12T15:32:38.274Z,85.50
2018-05-12T15:35:05.714Z,84.20
2018-05-12T15:37:33.173Z,85.90
2018-05-12T15:40:00.611Z,83.30
2018-05-12T15:42:28.087Z,85.40
2018-05-12T15:44:55.539Z,83.50
2018-05-12T15:47:23.002Z,83.10
2018-05-12T15:49:50.521Z,82.80
2018-05-12T15:52:17.919Z,83.00
2018-05-12T15:54:45.370Z,81.20
2018-05-12T15:57:13.318Z,81.70
2018-05-12T15:59:41.414Z,81.40
2018-05-12T16:02:08.874Z,81.50
2018-05-12T16:04:36.736Z,82.00
2018-05-12T16:07:04.178Z,84.10
2018-05-12T16:09:32.059Z,81.60
2018-05-12T16:11:59.518Z,83.30
2018-05-12T16:14:26.989Z,85.00
2018-05-12T16:16:54.466Z,88.20
2018-05-12T16:19:21.923Z,87.40
2018-05-12T16:21:49.375Z,87.50
2018-05-12T16:24:16.826Z,89.20
2018-05-12T16:26:44.279Z,89.60
2018-05-12T16:29:11.771Z,89.00
2018-05-12T16:31:39.209Z,89.60
2018-05-12T16:34:06.643Z,90.50
2018-05-12T16:36:34.092Z,90.00
2018-05-12T16:39:01.555Z,90.30
2018-05-12T16:41:29.002Z,91.00
2018-05-12T16:43:56.458Z,91.40
2018-05-12T16:46:23.914Z,91.70
2018-05-12T16:48:51.379Z,91.70
2018-05-12T16:51:18.854Z,90.70
2018-05-12T16:53:46.630Z,90.80
2018-05-12T16:56:14.083Z,91.50
2018-05-12T16:58:41.522Z,93.20
2018-05-12T17:01:08.997Z,93.50
2018-05-12T17:03:36.434Z,93.40
2018-05-12T17:06:03.903Z,92.50
2018-05-12T17:08:31.357Z,91.80
2018-05-12T17:10:58.803Z,92.70
2018-05-12T17:13:26.262Z,93.70
2018-05-12T17:15:53.726Z,93.90
2018-05-12T17:18:21.186Z,93.50
2018-05-12T17:20:49.154Z,92.60
2018-05-12T17:23:16.667Z,92.70
2018-05-12T17:25:44.043Z,92.60
2018-05-12T17:28:11.501Z,93.00
2018-05-12T17:30:38.939Z,93.30
2018-05-12T17:33:06.404Z,93.70
2018-05-12T17:35:33.838Z,93.40
2018-05-12T17:38:02.046Z,93.90
2018-05-12T17:40:29.503Z,93.90
2018-05-12T17:42:56.946Z,94.10
2018-05-12T17:45:24.418Z,94.10
2018-05-12T17:47:51.875Z,93.90
2018-05-12T17:50:19.337Z,94.30
2018-05-12T17:52:46.786Z,93.80
2018-05-12T17:55:14.246Z,94.30
2018-05-12T17:57:41.690Z,95.20
2018-05-12T18:00:09.158Z,94.80
2018-05-12T18:02:36.602Z,96.00
2018-05-12T18:05:04.046Z,96.50
2018-05-12T18:07:32.266Z,96.40
2018-05-12T18:09:59.701Z,96.40
2018-05-12T18:12:27.163Z,97.10
2018-05-12T18:14:54.618Z,97.10
2018-05-12T18:17:22.116Z,97.70
2018-05-12T18:19:49.537Z,97.30
2018-05-12T18:22:17.880Z,98.50
2018-05-12T18:24:46.100Z,99.20
2018-05-12T18:27:14.441Z,99.10
2018-05-12T18:29:41.899Z,99.80
2018-05-12T18:32:09.338Z,99.90
2018-05-12T18:34:37.605Z,99.90
2018-05-12T18:37:05.006Z,99.90
2018-05-12T18:39:32.463Z,99.90
2018-05-12T18:41:59.935Z,99.90
2018-05-12T18:44:27.388Z,99.90
2018-05-12T18:46:54.853Z,99.90
2018-05-12T18:49:22.479Z,99.90
2018-05-12T18:51:49.979Z,99.90
2018-05-12T18:54:17.427Z,99.90
2018-05-12T18:56:44.944Z,99.90
2018-05-12T18:59:12.326Z,99.90
2018-05-12T19:01:39.779Z,99.90
2018-05-12T19:04:07.261Z,99.90
2018-05-12T19:06:34.702Z,99.90
2018-05-12T19:09:02.151Z,99.90
2018-05-12T19:11:29.615Z,99.90
2018-05-12T19:13:57.067Z,99.90
2018-05-12T19:16:24.876Z,99.90
2018-05-12T19:18:52.322Z,99.90
2018-05-12T19:21:19.761Z,99.90
2018-05-12T19:23:47.216Z,99.90
2018-05-12T19:26:14.661Z,99.90
2018-05-12T19:28:42.115Z,99.90
2018-05-12T19:31:10.019Z,99.90
2018-05-12T19:33:37.483Z,99.90
2018-05-12T19:36:04.922Z,99.90
2018-05-12T19:38:32.739Z,99.90
2018-05-12T19:41:00.192Z,99.90
2018-05-12T19:43:28.410Z,99.90
2018-05-12T19:45:55.869Z,99.90
2018-05-12T19:48:23.323Z,99.90
2018-05-12T19:50:50.764Z,99.90
2018-05-12T19:53:18.224Z,99.90
2018-05-12T19:55:45.680Z,99.90
2018-05-12T19:58:13.134Z,99.90
2018-05-12T20:00:40.587Z,99.90
2018-05-12T20:03:08.049Z,99.90
2018-05-12T20:05:35.500Z,99.90
2018-05-12T20:08:02.946Z,99.90
2018-05-12T20:10:30.386Z,99.90
2018-05-12T20:12:58.602Z,99.90
2018-05-12T20:15:26.055Z,99.90
2018-05-12T20:17:53.790Z,99.90
2018-05-12T20:20:21.235Z,99.90
2018-05-12T20:22:49.966Z,99.90
2018-05-12T20:25:18.886Z,99.90
2018-05-12T20:27:46.344Z,99.90
2018-05-12T20:30:13.783Z,99.90
2018-05-12T20:32:41.238Z,99.90
2018-05-12T20:35:08.697Z,99.90
2018-05-12T20:37:36.572Z,99.90
2018-05-12T20:40:03.998Z,99.90
2018-05-12T20:42:31.456Z,99.90
2018-05-12T20:44:58.907Z,99.90
2018-05-12T20:47:26.368Z,99.90
2018-05-12T20:49:53.820Z,99.90
2018-05-12T20:52:22.583Z,99.90
2018-05-12T20:54:51.194Z,99.90
2018-05-12T20:57:18.663Z,99.90
2018-05-12T20:59:46.115Z,99.90
2018-05-12T21:02:13.567Z,99.90
2018-05-12T21:04:41.030Z,99.90
2018-05-12T21:07:08.477Z,99.90
2018-05-12T21:09:35.922Z,99.90
2018-05-12T21:12:03.374Z,99.90
2018-05-12T21:14:31.186Z,99.90
2018-05-12T21:16:58.644Z,99.90
2018-05-12T21:19:26.095Z,99.90
2018-05-12T21:21:53.553Z,99.90
2018-05-12T21:24:21.006Z,99.90
2018-05-12T21:26:48.458Z,99.90
2018-05-12T21:29:15.904Z,99.90
2018-05-12T21:31:43.372Z,99.90
2018-05-12T21:34:11.406Z,99.90
2018-05-12T21:36:38.856Z,99.90
2018-05-12T21:39:07.070Z,99.90
2018-05-12T21:41:34.527Z,99.90
2018-05-12T21:44:01.979Z,99.90
2018-05-12T21:46:30.367Z,99.90
2018-05-12T21:48:57.834Z,99.90
2018-05-12T21:51:25.336Z,99.90
2018-05-12T21:53:52.792Z,99.90
2018-05-12T21:56:21.007Z,99.90
2018-05-12T21:58:48.458Z,99.90
2018-05-12T22:01:15.917Z,99.90
2018-05-12T22:03:43.358Z,99.90
2018-05-12T22:06:10.831Z,99.90
2018-05-12T22:08:38.273Z,99.90
2018-05-12T22:11:05.715Z,99.90
2018-05-12T22:13:33.938Z,99.90
2018-05-12T22:16:01.392Z,99.90
2018-05-12T22:18:28.879Z,99.90
2018-05-12T22:20:56.619Z,99.90
2018-05-12T22:23:24.066Z,99.90
2018-05-12T22:25:51.515Z,99.90
2018-05-12T22:28:18.989Z,99.90
2018-05-12T22:30:46.442Z,99.90
2018-05-12T22:33:13.883Z,99.90
2018-05-12T22:35:41.348Z,99.90
2018-05-12T22:38:08.794Z,99.90
2018-05-12T22:40:36.247Z,99.90
2018-05-12T22:43:04.217Z,99.90
2018-05-12T22:45:31.681Z,99.90
2018-05-12T22:47:59.135Z,99.90
2018-05-12T22:50:26.591Z,99.90
2018-05-12T22:52:54.030Z,99.90
2018-05-12T22:55:21.474Z,99.90
2018-05-12T22:57:49.706Z,99.90
2018-05-12T23:00:17.601Z,99.90
2018-05-12T23:02:45.037Z,99.90
2018-05-12T23:05:12.504Z,99.90
2018-05-12T23:07:39.942Z,99.90
2018-05-12T23:10:07.481Z,99.90
2018-05-12T23:12:34.851Z,99.90
2018-05-12T23:15:02.970Z,99.90
2018-05-12T23:17:31.978Z,99.90
2018-05-12T23:19:59.426Z,99.90
2018-05-12T23:22:27.654Z,99.90
2018-05-12T23:24:55.104Z,99.90
2018-05-12T23:27:22.564Z,99.90
2018-05-12T23:29:49.998Z,99.90
2018-05-12T23:32:17.463Z,99.90
2018-05-12T23:34:44.911Z,99.90
2018-05-12T23:37:12.390Z,99.90
2018-05-12T23:39:39.839Z,99.90
2018-05-12T23:42:07.277Z,99.90
2018-05-12T23:44:34.739Z,99.90
2018-05-12T23:47:02.178Z,99.90
2018-05-12T23:49:29.624Z,99.90
2018-05-12T23:51:57.854Z,99.90
2018-05-12T23:54:25.295Z,99.90
2018-05-12T23:56:52.762Z,99.90
2018-05-12T23:59:20.203Z,99.90
